Empire State — WDE4431 — position and weather

sailwx.info

Track history (hours):
 
Tides and Currents Weather Stations Pressure Air Temp Water Temp Dewpoint Dewpoint Depression Visibility Wind Speed Wind Dir Waves Ship Positions

Empire State

Owner: Crowley Petroleum Services, Jacksonville, FL. More information available from US FCC via Universal Licensing System and Coast Guard Vessel Documentation Center.

Last reported at 2016-Jun-27 04:33 UTC. Time now 2016-Jun-27 05:55 UTC.
Position N 34°48' W 122°46'.

Length 183 m; draft 8.7 m.

Type: Military. MMSI: 367353080.

Date/timePositionNaut miles runAvg speedWind from/ knotsBaromVisibWave heightAir tempDewpointWater temp
2016-Jun-27 04:33N 34°48' W 122°46'9 8.7
2016-Jun-27 03:33N 34°42' W 122°39'9 8.8
2016-Jun-27 02:33N 34°35' W 122°32'9 8.8
2016-Jun-27 01:33N 34°29' W 122°24'9 8.9
2016-Jun-27 00:33N 34°22' W 122°17'9 8.8
2016-Jun-26 23:33N 34°16' W 122°10'9 8.9
2016-Jun-26 22:33N 34°09' W 122°02'9 9.0
2016-Jun-26 21:34N 34°03' W 121°55'9 9.3
2016-Jun-26 20:33N 33°56' W 121°47'9 9.2
2016-Jun-26 19:33N 33°49' W 121°40'1111.0
2016-Jun-26 18:33N 33°42' W 121°30'1212.0
2016-Jun-26 17:33N 33°38' W 121°17'1313.1
2016-Jun-26 16:34N 33°38' W 121°01'1413.6
2016-Jun-26 15:33N 33°38' W 120°44'1413.6
2016-Jun-26 14:33N 33°38' W 120°28'1414.0
2016-Jun-26 13:33N 33°38' W 120°11'1715.0
2016-Jun-26 12:26N 33°38' W 119°51'1315.2
2016-Jun-26 11:34N 33°38' W 119°35'1615.1
2016-Jun-26 10:31N 33°38' W 119°16'1414.9
2016-Jun-26 09:33N 33°39' W 118°59'1515.0
2016-Jun-26 08:31N 33°39' W 118°41'1414.9
2016-Jun-26 07:34N 33°38' W 118°23'9 9.1
2016-Jun-26 06:33N 33°43' W 118°14'1 0.9
2016-Jun-26 05:33N 33°44' W 118°13'0 0.0
2016-Jun-26 04:33N 33°44' W 118°13'0 0.1
2016-Jun-26 03:33N 33°44' W 118°13'0 0.1
2016-Jun-26 02:33N 33°44' W 118°13'3 2.5
2016-Jun-26 01:33N 33°43' W 118°16'2 2.1
2016-Jun-26 00:32N 33°45' W 118°17'0 0.0
2016-Jun-25 23:32N 33°45' W 118°17'0 0.0
2016-Jun-25 22:32N 33°45' W 118°17'0 0.0
2016-Jun-25 21:32N 33°45' W 118°17'0 0.0
2016-Jun-25 20:32N 33°45' W 118°17'0 0.0
2016-Jun-25 19:32N 33°45' W 118°17'0 0.0
2016-Jun-25 18:32N 33°45' W 118°17'0 0.0
2016-Jun-25 17:32N 33°45' W 118°17'0 0.0
2016-Jun-25 16:32N 33°45' W 118°17'0 0.0
2016-Jun-25 15:32N 33°45' W 118°17'0 0.0
2016-Jun-25 14:32N 33°45' W 118°17'0 0.0
2016-Jun-25 13:29N 33°45' W 118°17'0 0.0
2016-Jun-25 12:23N 33°45' W 118°17'0 0.0
2016-Jun-25 11:32N 33°45' W 118°17'0 0.0
2016-Jun-25 10:32N 33°45' W 118°17'0 0.0
2016-Jun-25 09:32N 33°45' W 118°17'0 0.0
2016-Jun-25 08:32N 33°45' W 118°17'0 0.0
2016-Jun-25 07:29N 33°45' W 118°17'0 0.0
2016-Jun-25 06:32N 33°45' W 118°17'0 0.0
2016-Jun-25 05:32N 33°45' W 118°17'0 0.0
2016-Jun-25 04:29N 33°45' W 118°17'0 0.0
2016-Jun-25 03:32N 33°45' W 118°17'0 0.0
2016-Jun-25 02:32N 33°45' W 118°17'0 0.0
2016-Jun-25 01:32N 33°45' W 118°17'0 0.0
2016-Jun-25 00:29N 33°45' W 118°17'0 0.0
2016-Jun-24 23:29N 33°45' W 118°17'0 0.0
2016-Jun-24 22:32N 33°45' W 118°17'0 0.0
2016-Jun-24 21:29N 33°45' W 118°17'0 0.0
2016-Jun-24 20:29N 33°45' W 118°17'0 0.0
2016-Jun-24 19:32N 33°45' W 118°17'0 0.0
2016-Jun-24 18:32N 33°45' W 118°17'0 0.0
2016-Jun-24 17:32N 33°45' W 118°17'0 0.0
2016-Jun-24 16:32N 33°45' W 118°17'0 0.0
2016-Jun-24 15:32N 33°45' W 118°17'0 0.0
2016-Jun-24 14:29N 33°45' W 118°17'0 0.0
2016-Jun-24 13:32N 33°45' W 118°17'1 0.8
2016-Jun-24 12:34N 33°45' W 118°16'6 5.9
2016-Jun-24 11:34N 33°39' W 118°14'8 8.1
2016-Jun-24 10:34N 33°36' W 118°24'10 9.8
2016-Jun-24 09:34N 33°37' W 118°35'1010.2
2016-Jun-24 08:33N 33°38' W 118°48'1010.1
2016-Jun-24 07:33N 33°39' W 118°60'29 9.7
2016-Jun-24 04:33N 33°38' W 119°35'1210.3
2016-Jun-24 03:21N 33°38' W 119°50'8 9.8
2016-Jun-24 02:34N 33°38' W 119°59'10 9.9
2016-Jun-24 01:33N 33°38' W 120°11'9 9.2
2016-Jun-24 00:33N 33°37' W 120°22'10 9.9
2016-Jun-23 23:33N 33°38' W 120°34'10 9.8
2016-Jun-23 22:33N 33°38' W 120°46'1010.2
2016-Jun-23 21:33N 33°42' W 120°57'10 9.9
2016-Jun-23 20:34N 33°48' W 121°06'1010.2
2016-Jun-23 19:33N 33°54' W 121°16'1110.6
2016-Jun-23 18:33N 34°01' W 121°26'1211.6
2016-Jun-23 17:33N 34°08' W 121°37'1313.4
2016-Jun-23 16:33N 34°16' W 121°50'1313.5
2016-Jun-23 15:33N 34°24' W 122°03'1413.6
2016-Jun-23 14:33N 34°32' W 122°16'1413.6
2016-Jun-23 13:33N 34°41' W 122°29'1413.7
2016-Jun-23 12:33N 34°49' W 122°42'1413.5
2016-Jun-23 11:33N 34°57' W 122°55'1312.6
2016-Jun-23 10:33N 35°08' W 123°02'1313.4
2016-Jun-23 09:33N 35°22' W 123°06'1414.0
2016-Jun-23 08:33N 35°35' W 123°10'1413.8
2016-Jun-23 07:33N 35°49' W 123°13'2813.8
2016-Jun-23 05:33N 36°16' W 123°21'1414.2
2016-Jun-23 04:33N 36°30' W 123°25'1515.1
2016-Jun-23 03:33N 36°44' W 123°29'1514.5
2016-Jun-23 02:33N 36°59' W 123°30'1514.6
2016-Jun-23 01:33N 37°11' W 123°21'1414.3
2016-Jun-23 00:33N 37°24' W 123°12'1111.3
2016-Jun-22 23:33N 37°33' W 123°04'1010.0
2016-Jun-22 22:33N 37°39' W 122°54'1010.2
2016-Jun-22 21:33N 37°44' W 122°42'1010.1
2016-Jun-22 20:33N 37°48' W 122°31'7 6.5
2016-Jun-22 19:26N 37°55' W 122°27'8 8.6
2016-Jun-22 18:33N 38°02' W 122°23'7 6.3
2016-Jun-22 17:30N 38°04' W 122°15'0 0.0
2016-Jun-22 16:30N 38°04' W 122°15'0 0.0
2016-Jun-22 15:30N 38°04' W 122°15'0 0.0
2016-Jun-22 14:18N 38°04' W 122°15'0 0.0
2016-Jun-22 13:30N 38°04' W 122°15'0 0.0
2016-Jun-22 12:30N 38°04' W 122°15'0 0.0
2016-Jun-22 11:30N 38°04' W 122°15'0 0.0
2016-Jun-22 10:24N 38°04' W 122°15'0 0.0
2016-Jun-22 09:30N 38°04' W 122°15'0 0.0
2016-Jun-22 08:30N 38°04' W 122°15'0 0.0
2016-Jun-22 07:24N 38°04' W 122°15'0 0.0
2016-Jun-22 06:30N 38°04' W 122°15'0 0.0
2016-Jun-22 05:30N 38°04' W 122°15'0 0.0
2016-Jun-22 04:30N 38°04' W 122°15'0 0.0
2016-Jun-22 03:30N 38°04' W 122°15'0 0.0
2016-Jun-22 02:30N 38°04' W 122°15'0 0.0
2016-Jun-22 01:30N 38°04' W 122°15'0 0.0
2016-Jun-22 00:30N 38°04' W 122°15'0 0.0
2016-Jun-21 23:12N 38°04' W 122°15'0 0.0
2016-Jun-21 22:30N 38°04' W 122°15'0 0.0
2016-Jun-21 21:30N 38°04' W 122°15'0 0.0
2016-Jun-21 20:30N 38°04' W 122°15'0 0.0
2016-Jun-21 19:30N 38°04' W 122°15'0 0.0
2016-Jun-21 18:30N 38°04' W 122°15'0 0.0
2016-Jun-21 17:18N 38°04' W 122°15'0 0.0
2016-Jun-21 16:30N 38°04' W 122°15'0 0.0
2016-Jun-21 15:30N 38°04' W 122°15'0 0.0
2016-Jun-21 14:30N 38°04' W 122°15'0 0.0
2016-Jun-21 13:30N 38°04' W 122°15'0 0.0
2016-Jun-21 12:30N 38°04' W 122°15'0 0.0
2016-Jun-21 11:24N 38°04' W 122°15'0 0.0
2016-Jun-21 10:30N 38°04' W 122°15'0 0.0
2016-Jun-21 09:30N 38°04' W 122°15'0 0.0
2016-Jun-21 08:30N 38°04' W 122°15'0 0.0
2016-Jun-21 07:30N 38°04' W 122°15'0 0.0
2016-Jun-21 04:24N 38°04' W 122°15'0 0.0
2016-Jun-21 03:30N 38°04' W 122°15'0 0.0
2016-Jun-21 02:30N 38°04' W 122°15'0 0.0
2016-Jun-21 01:30N 38°04' W 122°15'0 0.0
2016-Jun-21 00:30N 38°04' W 122°15'0 0.0
2016-Jun-20 23:30N 38°04' W 122°15'0 0.0
2016-Jun-20 22:30N 38°04' W 122°15'0 0.0
2016-Jun-20 21:18N 38°04' W 122°15'0 0.0
2016-Jun-20 20:24N 38°04' W 122°15'0 0.0
2016-Jun-20 19:30N 38°04' W 122°15'0 0.0
2016-Jun-20 18:30N 38°04' W 122°15'0 0.0
2016-Jun-20 17:30N 38°04' W 122°15'4 4.1
2016-Jun-20 16:33N 38°03' W 122°19'1010.0
2016-Jun-20 15:33N 37°55' W 122°27'6 6.0
2016-Jun-20 14:34N 37°49' W 122°28'1111.1
2016-Jun-20 13:33N 37°44' W 122°41'9 9.0
2016-Jun-20 12:33N 37°39' W 122°50'9 8.9
2016-Jun-20 11:33N 37°34' W 122°59'9 9.0
2016-Jun-20 10:33N 37°29' W 123°09'9 8.5
2016-Jun-20 09:33N 37°33' W 123°19'10 9.9
2016-Jun-20 08:33N 37°38' W 123°29'1010.2
2016-Jun-20 07:33N 37°43' W 123°40'1010.3
2016-Jun-20 06:33N 37°48' W 123°52'1010.0
2016-Jun-20 05:33N 37°53' W 124°03'1010.0
2016-Jun-20 04:33N 37°60' W 124°12'8 8.4
2016-Jun-20 03:33N 38°07' W 124°18'10 9.9
2016-Jun-20 02:33N 38°15' W 124°25'1110.6
2016-Jun-20 01:33N 38°24' W 124°33'1714.6
2016-Jun-20 00:23N 38°38' W 124°45'1214.3
2016-Jun-19 23:33N 38°48' W 124°52'1814.2
2016-Jun-19 22:19N 39°04' W 125°03'37915.3
2016-Jun-18 21:28N 45°20' W 126°02'16314.8
2016-Jun-18 10:25N 48°04' W 125°53'1315.1
2016-Jun-18 09:33N 48°11' W 125°37'1514.4
2016-Jun-18 08:32N 48°19' W 125°19'1414.4
2016-Jun-18 07:33N 48°29' W 125°03'1313.5
2016-Jun-18 06:33N 48°30' W 124°43'1515.2
2016-Jun-18 05:33N 48°25' W 124°22'1515.4
2016-Jun-18 04:33N 48°19' W 124°00'1515.2
2016-Jun-18 03:33N 48°15' W 123°38'1313.0
2016-Jun-18 02:33N 48°09' W 123°21'1413.6
2016-Jun-18 01:34N 48°12' W 123°02'1211.9
2016-Jun-18 00:32N 48°10' W 122°44'1111.3
2016-Jun-17 23:33N 48°00' W 122°36'1110.8
2016-Jun-17 22:34N 47°51' W 122°27'1111.2
2016-Jun-17 21:34N 47°40' W 122°27'7 6.8
2016-Jun-17 20:34N 47°34' W 122°32'0 0.0
2016-Jun-17 19:33N 47°34' W 122°32'0 0.0
2016-Jun-17 18:29N 47°34' W 122°32'0 0.0
2016-Jun-17 17:26N 47°34' W 122°32'0 0.0
2016-Jun-17 16:33N 47°34' W 122°32'0 0.0
2016-Jun-17 15:33N 47°34' W 122°32'0 0.0
2016-Jun-17 14:32N 47°34' W 122°32'0 0.0
2016-Jun-17 13:33N 47°34' W 122°32'0 0.0
2016-Jun-17 12:33N 47°34' W 122°32'0 0.0
2016-Jun-17 11:29N 47°34' W 122°32'0 0.0
2016-Jun-17 10:30N 47°34' W 122°32'0 0.0
2016-Jun-17 09:32N 47°34' W 122°32'0 0.0
2016-Jun-17 08:32N 47°34' W 122°32'0 0.0
2016-Jun-17 07:32N 47°34' W 122°32'0 0.0
2016-Jun-17 06:33N 47°34' W 122°32'0 0.0
2016-Jun-17 05:30N 47°34' W 122°32'  
Track history (hours):
 
Tides and Currents Weather Stations Pressure Air Temp Water Temp Dewpoint Dewpoint Depression Visibility Wind Speed Wind Dir Waves Ship Positions

Empire State

Owner: Crowley Petroleum Services, Jacksonville, FL. More information available from US FCC via Universal Licensing System and Coast Guard Vessel Documentation Center.

Last reported at 2016-Jun-27 04:33 UTC. Time now 2016-Jun-27 05:55 UTC.
Position N 34°48' W 122°46'.

Length 183 m; draft 8.7 m.

Type: Military. MMSI: 367353080.

Date/timePositionNaut miles runAvg speedWind from/ knotsBaromVisibWave heightAir tempDewpointWater temp
2016-Jun-27 04:33N 34°48' W 122°46'9 8.7
2016-Jun-27 03:33N 34°42' W 122°39'9 8.8
2016-Jun-27 02:33N 34°35' W 122°32'9 8.8
2016-Jun-27 01:33N 34°29' W 122°24'9 8.9
2016-Jun-27 00:33N 34°22' W 122°17'9 8.8
2016-Jun-26 23:33N 34°16' W 122°10'9 8.9
2016-Jun-26 22:33N 34°09' W 122°02'9 9.0
2016-Jun-26 21:34N 34°03' W 121°55'9 9.3
2016-Jun-26 20:33N 33°56' W 121°47'9 9.2
2016-Jun-26 19:33N 33°49' W 121°40'1111.0
2016-Jun-26 18:33N 33°42' W 121°30'1212.0
2016-Jun-26 17:33N 33°38' W 121°17'1313.1
2016-Jun-26 16:34N 33°38' W 121°01'1413.6
2016-Jun-26 15:33N 33°38' W 120°44'1413.6
2016-Jun-26 14:33N 33°38' W 120°28'1414.0
2016-Jun-26 13:33N 33°38' W 120°11'1715.0
2016-Jun-26 12:26N 33°38' W 119°51'1315.2
2016-Jun-26 11:34N 33°38' W 119°35'1615.1
2016-Jun-26 10:31N 33°38' W 119°16'1414.9
2016-Jun-26 09:33N 33°39' W 118°59'1515.0
2016-Jun-26 08:31N 33°39' W 118°41'1414.9
2016-Jun-26 07:34N 33°38' W 118°23'9 9.1
2016-Jun-26 06:33N 33°43' W 118°14'1 0.9
2016-Jun-26 05:33N 33°44' W 118°13'0 0.0
2016-Jun-26 04:33N 33°44' W 118°13'0 0.1
2016-Jun-26 03:33N 33°44' W 118°13'0 0.1
2016-Jun-26 02:33N 33°44' W 118°13'3 2.5
2016-Jun-26 01:33N 33°43' W 118°16'2 2.1
2016-Jun-26 00:32N 33°45' W 118°17'0 0.0
2016-Jun-25 23:32N 33°45' W 118°17'0 0.0
2016-Jun-25 22:32N 33°45' W 118°17'0 0.0
2016-Jun-25 21:32N 33°45' W 118°17'0 0.0
2016-Jun-25 20:32N 33°45' W 118°17'0 0.0
2016-Jun-25 19:32N 33°45' W 118°17'0 0.0
2016-Jun-25 18:32N 33°45' W 118°17'0 0.0
2016-Jun-25 17:32N 33°45' W 118°17'0 0.0
2016-Jun-25 16:32N 33°45' W 118°17'0 0.0
2016-Jun-25 15:32N 33°45' W 118°17'0 0.0
2016-Jun-25 14:32N 33°45' W 118°17'0 0.0
2016-Jun-25 13:29N 33°45' W 118°17'0 0.0
2016-Jun-25 12:23N 33°45' W 118°17'0 0.0
2016-Jun-25 11:32N 33°45' W 118°17'0 0.0
2016-Jun-25 10:32N 33°45' W 118°17'0 0.0
2016-Jun-25 09:32N 33°45' W 118°17'0 0.0
2016-Jun-25 08:32N 33°45' W 118°17'0 0.0
2016-Jun-25 07:29N 33°45' W 118°17'0 0.0
2016-Jun-25 06:32N 33°45' W 118°17'0 0.0
2016-Jun-25 05:32N 33°45' W 118°17'0 0.0
2016-Jun-25 04:29N 33°45' W 118°17'0 0.0
2016-Jun-25 03:32N 33°45' W 118°17'0 0.0
2016-Jun-25 02:32N 33°45' W 118°17'0 0.0
2016-Jun-25 01:32N 33°45' W 118°17'0 0.0
2016-Jun-25 00:29N 33°45' W 118°17'0 0.0
2016-Jun-24 23:29N 33°45' W 118°17'0 0.0
2016-Jun-24 22:32N 33°45' W 118°17'0 0.0
2016-Jun-24 21:29N 33°45' W 118°17'0 0.0
2016-Jun-24 20:29N 33°45' W 118°17'0 0.0
2016-Jun-24 19:32N 33°45' W 118°17'0 0.0
2016-Jun-24 18:32N 33°45' W 118°17'0 0.0
2016-Jun-24 17:32N 33°45' W 118°17'0 0.0
2016-Jun-24 16:32N 33°45' W 118°17'0 0.0
2016-Jun-24 15:32N 33°45' W 118°17'0 0.0
2016-Jun-24 14:29N 33°45' W 118°17'0 0.0
2016-Jun-24 13:32N 33°45' W 118°17'1 0.8
2016-Jun-24 12:34N 33°45' W 118°16'6 5.9
2016-Jun-24 11:34N 33°39' W 118°14'8 8.1
2016-Jun-24 10:34N 33°36' W 118°24'10 9.8
2016-Jun-24 09:34N 33°37' W 118°35'1010.2
2016-Jun-24 08:33N 33°38' W 118°48'1010.1
2016-Jun-24 07:33N 33°39' W 118°60'29 9.7
2016-Jun-24 04:33N 33°38' W 119°35'1210.3
2016-Jun-24 03:21N 33°38' W 119°50'8 9.8
2016-Jun-24 02:34N 33°38' W 119°59'10 9.9
2016-Jun-24 01:33N 33°38' W 120°11'9 9.2
2016-Jun-24 00:33N 33°37' W 120°22'10 9.9
2016-Jun-23 23:33N 33°38' W 120°34'10 9.8
2016-Jun-23 22:33N 33°38' W 120°46'1010.2
2016-Jun-23 21:33N 33°42' W 120°57'10 9.9
2016-Jun-23 20:34N 33°48' W 121°06'1010.2
2016-Jun-23 19:33N 33°54' W 121°16'1110.6
2016-Jun-23 18:33N 34°01' W 121°26'1211.6
2016-Jun-23 17:33N 34°08' W 121°37'1313.4
2016-Jun-23 16:33N 34°16' W 121°50'1313.5
2016-Jun-23 15:33N 34°24' W 122°03'1413.6
2016-Jun-23 14:33N 34°32' W 122°16'1413.6
2016-Jun-23 13:33N 34°41' W 122°29'1413.7
2016-Jun-23 12:33N 34°49' W 122°42'1413.5
2016-Jun-23 11:33N 34°57' W 122°55'1312.6
2016-Jun-23 10:33N 35°08' W 123°02'1313.4
2016-Jun-23 09:33N 35°22' W 123°06'1414.0
2016-Jun-23 08:33N 35°35' W 123°10'1413.8
2016-Jun-23 07:33N 35°49' W 123°13'2813.8
2016-Jun-23 05:33N 36°16' W 123°21'1414.2
2016-Jun-23 04:33N 36°30' W 123°25'1515.1
2016-Jun-23 03:33N 36°44' W 123°29'1514.5
2016-Jun-23 02:33N 36°59' W 123°30'1514.6
2016-Jun-23 01:33N 37°11' W 123°21'1414.3
2016-Jun-23 00:33N 37°24' W 123°12'1111.3
2016-Jun-22 23:33N 37°33' W 123°04'1010.0
2016-Jun-22 22:33N 37°39' W 122°54'1010.2
2016-Jun-22 21:33N 37°44' W 122°42'1010.1
2016-Jun-22 20:33N 37°48' W 122°31'7 6.5
2016-Jun-22 19:26N 37°55' W 122°27'8 8.6
2016-Jun-22 18:33N 38°02' W 122°23'7 6.3
2016-Jun-22 17:30N 38°04' W 122°15'0 0.0
2016-Jun-22 16:30N 38°04' W 122°15'0 0.0
2016-Jun-22 15:30N 38°04' W 122°15'0 0.0
2016-Jun-22 14:18N 38°04' W 122°15'0 0.0
2016-Jun-22 13:30N 38°04' W 122°15'0 0.0
2016-Jun-22 12:30N 38°04' W 122°15'0 0.0
2016-Jun-22 11:30N 38°04' W 122°15'0 0.0
2016-Jun-22 10:24N 38°04' W 122°15'0 0.0
2016-Jun-22 09:30N 38°04' W 122°15'0 0.0
2016-Jun-22 08:30N 38°04' W 122°15'0 0.0
2016-Jun-22 07:24N 38°04' W 122°15'0 0.0
2016-Jun-22 06:30N 38°04' W 122°15'0 0.0
2016-Jun-22 05:30N 38°04' W 122°15'0 0.0
2016-Jun-22 04:30N 38°04' W 122°15'0 0.0
2016-Jun-22 03:30N 38°04' W 122°15'0 0.0
2016-Jun-22 02:30N 38°04' W 122°15'0 0.0
2016-Jun-22 01:30N 38°04' W 122°15'0 0.0
2016-Jun-22 00:30N 38°04' W 122°15'0 0.0
2016-Jun-21 23:12N 38°04' W 122°15'0 0.0
2016-Jun-21 22:30N 38°04' W 122°15'0 0.0
2016-Jun-21 21:30N 38°04' W 122°15'0 0.0
2016-Jun-21 20:30N 38°04' W 122°15'0 0.0
2016-Jun-21 19:30N 38°04' W 122°15'0 0.0
2016-Jun-21 18:30N 38°04' W 122°15'0 0.0
2016-Jun-21 17:18N 38°04' W 122°15'0 0.0
2016-Jun-21 16:30N 38°04' W 122°15'0 0.0
2016-Jun-21 15:30N 38°04' W 122°15'0 0.0
2016-Jun-21 14:30N 38°04' W 122°15'0 0.0
2016-Jun-21 13:30N 38°04' W 122°15'0 0.0
2016-Jun-21 12:30N 38°04' W 122°15'0 0.0
2016-Jun-21 11:24N 38°04' W 122°15'0 0.0
2016-Jun-21 10:30N 38°04' W 122°15'0 0.0
2016-Jun-21 09:30N 38°04' W 122°15'0 0.0
2016-Jun-21 08:30N 38°04' W 122°15'0 0.0
2016-Jun-21 07:30N 38°04' W 122°15'0 0.0
2016-Jun-21 04:24N 38°04' W 122°15'0 0.0
2016-Jun-21 03:30N 38°04' W 122°15'0 0.0
2016-Jun-21 02:30N 38°04' W 122°15'0 0.0
2016-Jun-21 01:30N 38°04' W 122°15'0 0.0
2016-Jun-21 00:30N 38°04' W 122°15'0 0.0
2016-Jun-20 23:30N 38°04' W 122°15'0 0.0
2016-Jun-20 22:30N 38°04' W 122°15'0 0.0
2016-Jun-20 21:18N 38°04' W 122°15'0 0.0
2016-Jun-20 20:24N 38°04' W 122°15'0 0.0
2016-Jun-20 19:30N 38°04' W 122°15'0 0.0
2016-Jun-20 18:30N 38°04' W 122°15'0 0.0
2016-Jun-20 17:30N 38°04' W 122°15'4 4.1
2016-Jun-20 16:33N 38°03' W 122°19'1010.0
2016-Jun-20 15:33N 37°55' W 122°27'6 6.0
2016-Jun-20 14:34N 37°49' W 122°28'1111.1
2016-Jun-20 13:33N 37°44' W 122°41'9 9.0
2016-Jun-20 12:33N 37°39' W 122°50'9 8.9
2016-Jun-20 11:33N 37°34' W 122°59'9 9.0
2016-Jun-20 10:33N 37°29' W 123°09'9 8.5
2016-Jun-20 09:33N 37°33' W 123°19'10 9.9
2016-Jun-20 08:33N 37°38' W 123°29'1010.2
2016-Jun-20 07:33N 37°43' W 123°40'1010.3
2016-Jun-20 06:33N 37°48' W 123°52'1010.0
2016-Jun-20 05:33N 37°53' W 124°03'1010.0
2016-Jun-20 04:33N 37°60' W 124°12'8 8.4
2016-Jun-20 03:33N 38°07' W 124°18'10 9.9
2016-Jun-20 02:33N 38°15' W 124°25'1110.6
2016-Jun-20 01:33N 38°24' W 124°33'1714.6
2016-Jun-20 00:23N 38°38' W 124°45'1214.3
2016-Jun-19 23:33N 38°48' W 124°52'1814.2
2016-Jun-19 22:19N 39°04' W 125°03'37915.3
2016-Jun-18 21:28N 45°20' W 126°02'16314.8
2016-Jun-18 10:25N 48°04' W 125°53'1315.1
2016-Jun-18 09:33N 48°11' W 125°37'1514.4
2016-Jun-18 08:32N 48°19' W 125°19'1414.4
2016-Jun-18 07:33N 48°29' W 125°03'1313.5
2016-Jun-18 06:33N 48°30' W 124°43'1515.2
2016-Jun-18 05:33N 48°25' W 124°22'1515.4
2016-Jun-18 04:33N 48°19' W 124°00'1515.2
2016-Jun-18 03:33N 48°15' W 123°38'1313.0
2016-Jun-18 02:33N 48°09' W 123°21'1413.6
2016-Jun-18 01:34N 48°12' W 123°02'1211.9
2016-Jun-18 00:32N 48°10' W 122°44'1111.3
2016-Jun-17 23:33N 48°00' W 122°36'1110.8
2016-Jun-17 22:34N 47°51' W 122°27'1111.2
2016-Jun-17 21:34N 47°40' W 122°27'7 6.8
2016-Jun-17 20:34N 47°34' W 122°32'0 0.0
2016-Jun-17 19:33N 47°34' W 122°32'0 0.0
2016-Jun-17 18:29N 47°34' W 122°32'0 0.0
2016-Jun-17 17:26N 47°34' W 122°32'0 0.0
2016-Jun-17 16:33N 47°34' W 122°32'0 0.0
2016-Jun-17 15:33N 47°34' W 122°32'0 0.0
2016-Jun-17 14:32N 47°34' W 122°32'0 0.0
2016-Jun-17 13:33N 47°34' W 122°32'0 0.0
2016-Jun-17 12:33N 47°34' W 122°32'0 0.0
2016-Jun-17 11:29N 47°34' W 122°32'0 0.0
2016-Jun-17 10:30N 47°34' W 122°32'0 0.0
2016-Jun-17 09:32N 47°34' W 122°32'0 0.0
2016-Jun-17 08:32N 47°34' W 122°32'0 0.0
2016-Jun-17 07:32N 47°34' W 122°32'0 0.0
2016-Jun-17 06:33N 47°34' W 122°32'0 0.0
2016-Jun-17 05:30N 47°34' W 122°32'  

Dump ship's entire track history